createdAt,value
2023-05-11T00:01:54.739Z,98401.09
2023-05-11T00:04:22.734Z,98403.28
2023-05-11T00:06:50.976Z,98391.13
2023-05-11T00:09:18.963Z,98401.53
2023-05-11T00:11:46.996Z,98402.03
2023-05-11T00:14:16.457Z,98405.50
2023-05-11T00:16:44.491Z,98401.19
2023-05-11T00:19:12.538Z,98403.50
2023-05-11T00:21:40.822Z,98403.94
2023-05-11T00:24:09.922Z,98399.09
2023-05-11T00:26:38.056Z,98401.41
2023-05-11T00:29:06.226Z,98398.63
2023-05-11T00:31:36.016Z,98400.72
2023-05-11T00:34:04.244Z,98401.59
2023-05-11T00:36:33.302Z,98395.03
2023-05-11T00:39:01.461Z,98392.78
2023-05-11T00:41:29.483Z,98396.00
2023-05-11T00:43:57.947Z,98390.38
2023-05-11T00:46:26.303Z,98393.41
2023-05-11T00:48:55.976Z,98392.44
2023-05-11T00:51:24.035Z,98385.81
2023-05-11T00:53:52.250Z,98387.25
2023-05-11T00:56:21.621Z,98383.31
2023-05-11T00:58:50.356Z,98385.78
2023-05-11T01:01:19.015Z,98386.28
2023-05-11T01:03:48.416Z,98381.00
2023-05-11T01:06:26.713Z,98391.00
2023-05-11T01:09:04.457Z,98394.53
2023-05-11T01:11:42.265Z,98380.19
2023-05-11T01:14:16.185Z,98391.88
2023-05-11T01:16:51.552Z,98391.34
2023-05-11T01:19:30.230Z,98398.47
2023-05-11T01:22:01.256Z,98391.84
2023-05-11T01:24:41.020Z,98389.41
2023-05-11T01:27:33.127Z,98397.47
2023-05-11T01:30:29.115Z,98381.13
2023-05-11T01:33:00.952Z,98392.03
2023-05-11T01:35:32.460Z,98383.28
2023-05-11T01:38:02.444Z,98392.53
2023-05-11T01:40:33.664Z,98386.97
2023-05-11T01:43:05.305Z,98390.50
2023-05-11T01:45:40.398Z,98394.81
2023-05-11T01:48:15.119Z,98395.19
2023-05-11T01:50:43.448Z,98390.31
2023-05-11T01:53:13.482Z,98391.94
2023-05-11T01:55:43.300Z,98390.81
2023-05-11T01:58:16.596Z,98389.22
2023-05-11T02:00:47.420Z,98395.03
2023-05-11T02:03:17.633Z,98386.03
2023-05-11T02:05:48.507Z,98385.44
2023-05-11T02:08:18.132Z,98388.50
2023-05-11T02:10:47.838Z,98384.75
2023-05-11T02:13:18.998Z,98395.72
2023-05-11T02:15:54.174Z,98391.72
2023-05-11T02:18:23.039Z,98393.78
2023-05-11T02:21:00.252Z,98392.34
2023-05-11T02:23:29.291Z,98391.41
2023-05-11T02:25:58.824Z,98397.66
2023-05-11T02:28:27.264Z,98392.13
2023-05-11T02:31:01.615Z,98394.75
2023-05-11T02:33:35.605Z,98393.84
2023-05-11T02:36:04.577Z,98398.56
2023-05-11T02:38:36.541Z,98397.88
2023-05-11T02:41:10.916Z,98397.16
2023-05-11T02:43:44.771Z,98399.38
2023-05-11T02:46:18.218Z,98404.16
2023-05-11T02:48:50.618Z,98398.47
2023-05-11T02:51:23.438Z,98396.91
2023-05-11T02:53:56.067Z,98399.72
2023-05-11T02:56:25.868Z,98401.84
2023-05-11T02:58:55.956Z,98402.75
2023-05-11T03:01:30.619Z,98395.19
2023-05-11T03:03:59.630Z,98403.06
2023-05-11T03:06:30.418Z,98399.53
2023-05-11T03:08:58.771Z,98391.72
2023-05-11T03:11:28.515Z,98392.34
2023-05-11T03:13:57.202Z,98394.69
2023-05-11T03:16:26.831Z,98400.63
2023-05-11T03:18:56.749Z,98404.00
2023-05-11T03:21:26.693Z,98395.53
2023-05-11T03:23:55.939Z,98402.91
2023-05-11T03:26:28.541Z,98397.94
2023-05-11T03:28:58.387Z,98405.88
2023-05-11T03:31:26.561Z,98408.44
2023-05-11T03:33:56.193Z,98404.44
2023-05-11T03:36:26.729Z,98411.53
2023-05-11T03:38:57.698Z,98409.84
2023-05-11T03:41:32.225Z,98403.59
2023-05-11T03:44:03.023Z,98411.88
2023-05-11T03:46:32.631Z,98417.41
2023-05-11T03:49:05.936Z,98412.03
2023-05-11T03:51:35.634Z,98414.81
2023-05-11T03:54:03.979Z,98415.00
2023-05-11T03:56:32.265Z,98415.25
2023-05-11T03:59:00.678Z,98416.03
2023-05-11T04:01:29.765Z,98420.94
2023-05-11T04:03:58.029Z,98413.97
2023-05-11T04:06:27.581Z,98414.78
2023-05-11T04:09:04.293Z,98422.59
2023-05-11T04:11:32.342Z,98417.53
2023-05-11T04:14:00.407Z,98422.66
2023-05-11T04:16:28.584Z,98423.03
2023-05-11T04:18:56.866Z,98430.00
2023-05-11T04:21:24.925Z,98425.31
2023-05-11T04:23:54.404Z,98428.75
2023-05-11T04:26:22.626Z,98428.44
2023-05-11T04:28:50.649Z,98427.63
2023-05-11T04:31:18.666Z,98420.91
2023-05-11T04:33:47.190Z,98427.34
2023-05-11T04:36:15.567Z,98426.50
2023-05-11T04:38:43.813Z,98423.88
2023-05-11T04:41:14.997Z,98420.72
2023-05-11T04:43:43.628Z,98423.25
2023-05-11T04:46:12.121Z,98412.28
2023-05-11T04:48:40.533Z,98429.78
2023-05-11T04:51:08.560Z,98424.56
2023-05-11T04:53:42.414Z,98424.88
2023-05-11T04:56:12.009Z,98424.31
2023-05-11T04:58:41.416Z,98437.72
2023-05-11T05:01:10.313Z,98434.47
2023-05-11T05:03:38.785Z,98432.25
2023-05-11T05:06:07.188Z,98427.47
2023-05-11T05:08:35.269Z,98432.63
2023-05-11T05:11:03.523Z,98440.91
2023-05-11T05:13:31.753Z,98440.25
2023-05-11T05:16:01.348Z,98436.53
2023-05-11T05:18:29.721Z,98435.25
2023-05-11T05:20:57.908Z,98437.31
2023-05-11T05:23:26.563Z,98438.28
2023-05-11T05:25:54.909Z,98443.59
2023-05-11T05:28:23.977Z,98439.38
2023-05-11T05:30:52.390Z,98447.38
2023-05-11T05:33:22.301Z,98440.38
2023-05-11T05:35:50.795Z,98441.34
2023-05-11T05:38:20.415Z,98434.81
2023-05-11T05:40:49.122Z,98439.25
2023-05-11T05:43:17.560Z,98434.53
2023-05-11T05:45:46.166Z,98436.50
2023-05-11T05:48:14.271Z,98441.66
2023-05-11T05:50:43.885Z,98441.66
2023-05-11T05:53:12.063Z,98447.69
2023-05-11T05:55:40.539Z,98439.25
2023-05-11T05:58:08.832Z,98445.34
2023-05-11T06:00:38.277Z,98439.28
2023-05-11T06:03:10.136Z,98443.38
2023-05-11T06:05:38.440Z,98446.41
2023-05-11T06:08:11.132Z,98445.13
2023-05-11T06:10:40.658Z,98446.09
2023-05-11T06:13:10.813Z,98446.16
2023-05-11T06:15:43.333Z,98453.19
2023-05-11T06:18:23.777Z,98460.25
2023-05-11T06:20:52.466Z,98452.97
2023-05-11T06:23:22.141Z,98449.50
2023-05-11T06:25:50.179Z,98463.66
2023-05-11T06:28:18.485Z,98454.03
2023-05-11T06:30:47.271Z,98463.13
2023-05-11T06:33:15.327Z,98452.53
2023-05-11T06:35:43.462Z,98454.78
2023-05-11T06:38:13.990Z,98454.31
2023-05-11T06:40:44.790Z,98457.56
2023-05-11T06:43:13.056Z,98452.53
2023-05-11T06:45:49.303Z,98455.03
2023-05-11T06:48:18.110Z,98449.91
2023-05-11T06:50:46.491Z,98456.00
2023-05-11T06:53:17.145Z,98458.50
2023-05-11T06:55:46.754Z,98450.78
2023-05-11T06:58:15.008Z,98460.72
2023-05-11T07:00:45.824Z,98461.41
2023-05-11T07:03:13.983Z,98451.41
2023-05-11T07:05:42.121Z,98450.78
2023-05-11T07:08:10.209Z,98439.19
2023-05-11T07:10:38.347Z,98444.47
2023-05-11T07:13:07.688Z,98450.16
2023-05-11T07:15:36.202Z,98442.56
2023-05-11T07:18:04.848Z,98446.84
2023-05-11T07:20:32.875Z,98444.09
2023-05-11T07:23:00.999Z,98445.88
2023-05-11T07:25:29.118Z,98442.88
2023-05-11T07:27:57.397Z,98445.78
2023-05-11T07:30:26.880Z,98443.25
2023-05-11T07:32:55.025Z,98442.66
2023-05-11T07:35:24.128Z,98448.81
2023-05-11T07:37:52.508Z,98446.97
2023-05-11T07:40:20.862Z,98453.25
2023-05-11T07:42:49.109Z,98454.31
2023-05-11T07:45:17.158Z,98453.44
2023-05-11T07:47:46.549Z,98452.78
2023-05-11T07:50:14.605Z,98452.94
2023-05-11T07:52:42.749Z,98453.53
2023-05-11T07:55:11.097Z,98458.16
2023-05-11T07:57:39.186Z,98452.78
2023-05-11T08:00:10.857Z,98448.94
2023-05-11T08:02:42.170Z,98456.03
2023-05-11T08:05:14.253Z,98455.13
2023-05-11T08:07:42.569Z,98447.41
2023-05-11T08:10:11.464Z,98456.66
2023-05-11T08:12:39.885Z,98452.72
2023-05-11T08:15:08.891Z,98452.34
2023-05-11T08:17:37.573Z,98452.03
2023-05-11T08:20:06.862Z,98440.13
2023-05-11T08:22:36.437Z,98447.16
2023-05-11T08:25:05.683Z,98443.44
2023-05-11T08:27:33.742Z,98437.91
2023-05-11T08:30:01.758Z,98442.13
2023-05-11T08:32:30.452Z,98442.13
2023-05-11T08:34:59.032Z,98447.50
2023-05-11T08:37:27.134Z,98449.31
2023-05-11T08:39:56.585Z,98437.03
2023-05-11T08:42:26.118Z,98442.84
2023-05-11T08:44:57.483Z,98434.19
2023-05-11T08:47:25.518Z,98435.63
2023-05-11T08:49:54.184Z,98441.84
2023-05-11T08:52:22.227Z,98429.34
2023-05-11T08:54:50.422Z,98428.25
2023-05-11T08:57:21.141Z,98427.81
2023-05-11T08:59:50.388Z,98425.00
2023-05-11T09:02:19.742Z,98428.06
2023-05-11T09:04:49.277Z,98421.97
2023-05-11T09:07:18.805Z,98424.09
2023-05-11T09:09:48.036Z,98428.91
2023-05-11T09:12:17.156Z,98426.34
2023-05-11T09:14:47.680Z,98433.47
2023-05-11T09:17:15.768Z,98425.34
2023-05-11T09:20:00.654Z,98426.97
2023-05-11T09:22:31.471Z,98426.16
2023-05-11T09:25:01.813Z,98412.72
2023-05-11T09:27:29.863Z,98415.28
2023-05-11T09:30:11.663Z,98410.63
2023-05-11T09:32:48.541Z,98424.78
2023-05-11T09:35:24.108Z,98424.28
2023-05-11T09:38:04.792Z,98423.28
2023-05-11T09:40:34.918Z,98422.28
2023-05-11T09:43:04.075Z,98417.94
2023-05-11T09:45:40.937Z,98418.59
2023-05-11T09:48:24.764Z,98413.28
2023-05-11T09:50:59.545Z,98415.75
2023-05-11T09:53:36.085Z,98407.47
2023-05-11T09:56:04.856Z,98405.22
2023-05-11T09:58:47.790Z,98407.97
2023-05-11T10:01:18.462Z,98399.69
2023-05-11T10:03:52.215Z,98401.34
2023-05-11T10:06:21.174Z,98398.31
2023-05-11T10:08:50.156Z,98396.28
2023-05-11T10:11:18.335Z,98396.41
2023-05-11T10:13:46.834Z,98393.66
2023-05-11T10:16:17.719Z,98386.44
2023-05-11T10:18:46.988Z,98383.44
2023-05-11T10:21:16.740Z,98371.03
2023-05-11T10:23:44.897Z,98377.59
2023-05-11T10:26:14.551Z,98375.53
2023-05-11T10:28:42.827Z,98376.84
2023-05-11T10:31:11.806Z,98370.47
2023-05-11T10:33:42.583Z,98374.59
2023-05-11T10:36:12.306Z,98386.78
2023-05-11T10:38:40.602Z,98378.72
2023-05-11T10:41:26.757Z,98374.56
2023-05-11T10:44:36.019Z,98369.16
2023-05-11T10:47:23.857Z,98360.31
2023-05-11T10:50:24.270Z,98358.09
2023-05-11T10:53:09.255Z,98367.47
2023-05-11T10:55:53.830Z,98354.97
2023-05-11T10:58:36.607Z,98352.31
2023-05-11T11:01:32.243Z,98340.34
2023-05-11T11:04:02.962Z,98358.63
2023-05-11T11:06:32.149Z,98352.84
2023-05-11T11:09:02.912Z,98349.59
2023-05-11T11:11:33.478Z,98349.47
2023-05-11T11:14:03.779Z,98356.75
2023-05-11T11:16:31.994Z,98343.16
2023-05-11T11:19:38.041Z,98337.97
2023-05-11T11:22:07.047Z,98344.97
2023-05-11T11:24:47.264Z,98341.88
2023-05-11T11:27:15.947Z,98349.22
2023-05-11T11:30:19.608Z,98348.25
2023-05-11T11:32:48.320Z,98330.53
2023-05-11T11:35:47.348Z,98335.53
2023-05-11T11:38:17.402Z,98339.09
2023-05-11T11:40:51.943Z,98345.00
2023-05-11T11:43:22.643Z,98342.72
2023-05-11T11:45:55.024Z,98337.28
2023-05-11T11:48:25.073Z,98337.34
2023-05-11T11:51:04.146Z,98331.28
2023-05-11T11:54:08.950Z,98332.75
2023-05-11T11:56:46.044Z,98336.47
2023-05-11T11:59:16.149Z,98332.09
2023-05-11T12:01:48.624Z,98327.66
2023-05-11T12:04:52.098Z,98340.56
2023-05-11T12:07:21.717Z,98329.94
2023-05-11T12:09:50.480Z,98326.03
2023-05-11T12:12:21.061Z,98324.53
2023-05-11T12:14:52.314Z,98323.31
2023-05-11T12:17:28.384Z,98327.16
2023-05-11T12:20:11.769Z,98320.97
2023-05-11T12:22:39.934Z,98327.72
2023-05-11T12:25:09.015Z,98321.53
2023-05-11T12:27:48.033Z,98310.34
2023-05-11T12:30:26.796Z,98310.09
2023-05-11T12:32:57.194Z,98305.34
2023-05-11T12:35:27.047Z,98299.44
2023-05-11T12:37:55.975Z,98301.34
2023-05-11T12:40:24.497Z,98306.91
2023-05-11T12:42:54.607Z,98293.88
2023-05-11T12:45:23.596Z,98297.75
2023-05-11T12:47:53.051Z,98289.53
2023-05-11T12:50:22.086Z,98290.38
2023-05-11T12:52:50.463Z,98295.44
2023-05-11T12:55:28.792Z,98296.63
2023-05-11T12:58:10.061Z,98297.13
2023-05-11T13:00:38.655Z,98297.91
2023-05-11T13:03:07.891Z,98287.63
2023-05-11T13:05:36.158Z,98283.69
2023-05-11T13:08:05.921Z,98288.69
2023-05-11T13:10:33.976Z,98282.16
2023-05-11T13:13:02.076Z,98285.38
2023-05-11T13:15:31.790Z,98276.31
2023-05-11T13:18:03.438Z,98275.81
2023-05-11T13:20:33.072Z,98278.56
2023-05-11T13:23:06.297Z,98272.72
2023-05-11T13:25:35.154Z,98281.91
2023-05-11T13:28:03.495Z,98268.06
2023-05-11T13:30:34.721Z,98266.50
2023-05-11T13:33:03.339Z,98260.63
2023-05-11T13:35:31.485Z,98252.22
2023-05-11T13:37:59.835Z,98259.41
2023-05-11T13:40:27.921Z,98265.59
2023-05-11T13:42:56.839Z,98261.03
2023-05-11T13:45:25.018Z,98260.72
2023-05-11T13:47:55.374Z,98250.50
2023-05-11T13:50:23.728Z,98248.84
2023-05-11T13:52:52.008Z,98249.97
2023-05-11T13:55:21.109Z,98255.50
2023-05-11T13:57:49.609Z,98253.31
2023-05-11T14:00:19.568Z,98255.13
2023-05-11T14:02:49.909Z,98257.84
2023-05-11T14:05:19.761Z,98254.19
2023-05-11T14:07:49.194Z,98246.91
2023-05-11T14:10:18.122Z,98243.16
2023-05-11T14:12:47.056Z,98241.81
2023-05-11T14:15:15.324Z,98252.47
2023-05-11T14:17:45.839Z,98247.84
2023-05-11T14:20:15.687Z,98246.44
2023-05-11T14:22:45.188Z,98245.13
2023-05-11T14:25:13.353Z,98244.13
2023-05-11T14:27:41.494Z,98238.84
2023-05-11T14:30:10.801Z,98243.53
2023-05-11T14:32:39.004Z,98242.41
2023-05-11T14:35:07.444Z,98233.78
2023-05-11T14:37:35.991Z,98234.44
2023-05-11T14:40:06.476Z,98232.19
2023-05-11T14:42:34.626Z,98232.34
2023-05-11T14:45:02.668Z,98229.31
2023-05-11T14:47:30.828Z,98240.38
2023-05-11T14:49:58.992Z,98231.41
2023-05-11T14:52:27.052Z,98231.28
2023-05-11T14:54:55.143Z,98233.44
2023-05-11T14:57:25.176Z,98229.44
2023-05-11T14:59:59.740Z,98227.78
2023-05-11T15:02:29.985Z,98233.13
2023-05-11T15:04:58.530Z,98233.13
2023-05-11T15:07:26.971Z,98223.34
2023-05-11T15:09:56.097Z,98230.03
2023-05-11T15:12:25.574Z,98232.66
2023-05-11T15:14:53.682Z,98235.13
2023-05-11T15:17:21.795Z,98229.88
2023-05-11T15:19:49.913Z,98232.00
2023-05-11T15:22:19.319Z,98237.50
2023-05-11T15:24:48.078Z,98242.09
2023-05-11T15:27:16.453Z,98230.19
2023-05-11T15:29:46.023Z,98223.13
2023-05-11T15:32:17.268Z,98226.22
2023-05-11T15:34:58.463Z,98221.66
2023-05-11T15:37:28.351Z,98231.66
2023-05-11T15:39:56.480Z,98220.81
2023-05-11T15:42:24.578Z,98227.28
2023-05-11T15:44:54.123Z,98234.06
2023-05-11T15:47:22.354Z,98237.16
2023-05-11T15:49:50.407Z,98232.41
2023-05-11T15:52:19.156Z,98235.09
2023-05-11T15:54:47.252Z,98235.66
2023-05-11T15:57:15.258Z,98236.13
2023-05-11T15:59:43.330Z,98234.47
2023-05-11T16:02:12.957Z,98237.34
2023-05-11T16:04:41.418Z,98235.63
2023-05-11T16:07:09.492Z,98230.63
2023-05-11T16:09:37.577Z,98241.69
2023-05-11T16:12:06.145Z,98234.25
2023-05-11T16:14:34.276Z,98238.50
2023-05-11T16:17:03.006Z,98239.22
2023-05-11T16:19:35.222Z,98238.34
2023-05-11T16:22:03.352Z,98239.50
2023-05-11T16:24:34.329Z,98241.53
2023-05-11T16:27:03.007Z,98239.44
2023-05-11T16:29:32.161Z,98236.06
2023-05-11T16:32:00.646Z,98246.19
2023-05-11T16:34:28.924Z,98243.09
2023-05-11T16:36:59.363Z,98235.84
2023-05-11T16:39:27.669Z,98236.53
2023-05-11T16:41:55.838Z,98243.06
2023-05-11T16:44:24.707Z,98250.47
2023-05-11T16:46:53.544Z,98247.19
2023-05-11T16:49:21.720Z,98243.88
2023-05-11T16:51:49.839Z,98249.34
2023-05-11T16:54:19.313Z,98244.78
2023-05-11T16:56:47.544Z,98249.47
2023-05-11T16:59:15.630Z,98246.31
2023-05-11T17:01:45.362Z,98252.88
2023-05-11T17:04:14.296Z,98256.63
2023-05-11T17:06:42.508Z,98260.19
2023-05-11T17:09:10.628Z,98261.22
2023-05-11T17:11:40.060Z,98258.69
2023-05-11T17:14:08.174Z,98266.97
2023-05-11T17:16:36.365Z,98263.75
2023-05-11T17:19:04.581Z,98261.00
2023-05-11T17:21:32.691Z,98272.94
2023-05-11T17:24:00.825Z,98267.22
2023-05-11T17:26:39.619Z,98271.16
2023-05-11T17:29:16.628Z,98274.38
2023-05-11T17:31:46.716Z,98269.34
2023-05-11T17:34:15.026Z,98273.91
2023-05-11T17:36:43.144Z,98271.13
2023-05-11T17:39:11.307Z,98280.47
2023-05-11T17:41:39.651Z,98281.72
2023-05-11T17:44:08.308Z,98276.69
2023-05-11T17:46:38.356Z,98282.84
2023-05-11T17:49:06.912Z,98280.38
2023-05-11T17:51:35.018Z,98282.38
2023-05-11T17:54:03.057Z,98283.88
2023-05-11T17:56:31.499Z,98293.81
2023-05-11T17:58:59.635Z,98292.66
2023-05-11T18:01:28.502Z,98294.97
2023-05-11T18:03:59.128Z,98295.47
2023-05-11T18:06:28.370Z,98297.94
2023-05-11T18:08:56.642Z,98313.94
2023-05-11T18:11:24.771Z,98299.53
2023-05-11T18:13:52.906Z,98306.25
2023-05-11T18:16:21.018Z,98308.13
2023-05-11T18:18:49.169Z,98316.25
2023-05-11T18:21:19.134Z,98311.59
2023-05-11T18:23:47.263Z,98326.16
2023-05-11T18:26:16.238Z,98323.50
2023-05-11T18:28:44.253Z,98325.72
2023-05-11T18:31:12.450Z,98335.69
2023-05-11T18:33:40.648Z,98339.78
2023-05-11T18:36:08.969Z,98337.25
2023-05-11T18:38:38.570Z,98337.28
2023-05-11T18:41:07.310Z,98342.31
2023-05-11T18:43:35.516Z,98336.94
2023-05-11T18:46:08.569Z,98343.25
2023-05-11T18:48:36.923Z,98351.47
2023-05-11T18:51:05.163Z,98339.88
2023-05-11T18:53:33.749Z,98339.09
2023-05-11T18:56:03.240Z,98347.03
2023-05-11T18:58:31.814Z,98357.03
2023-05-11T19:00:59.869Z,98353.72
2023-05-11T19:03:28.738Z,98360.84
2023-05-11T19:05:57.017Z,98361.56
2023-05-11T19:08:25.175Z,98366.03
2023-05-11T19:10:53.211Z,98368.38
2023-05-11T19:13:23.178Z,98365.03
2023-05-11T19:15:51.259Z,98363.63
2023-05-11T19:18:19.453Z,98365.97
2023-05-11T19:20:47.674Z,98374.91
2023-05-11T19:23:15.945Z,98368.50
2023-05-11T19:25:44.113Z,98373.22
2023-05-11T19:28:12.436Z,98378.78
2023-05-11T19:30:41.883Z,98382.81
2023-05-11T19:33:10.039Z,98385.25
2023-05-11T19:35:38.238Z,98388.72
2023-05-11T19:38:07.330Z,98381.09
2023-05-11T19:43:07.928Z,98386.78
2023-05-11T19:45:37.614Z,98384.25
2023-05-11T19:48:07.329Z,98391.34
2023-05-11T19:50:35.529Z,98385.25
2023-05-11T19:53:03.544Z,98388.03
2023-05-11T19:55:31.572Z,98394.44
2023-05-11T19:58:00.049Z,98395.88
2023-05-11T20:00:28.119Z,98387.50
2023-05-11T20:02:57.266Z,98392.09
2023-05-11T20:05:26.881Z,98396.03
2023-05-11T20:07:54.889Z,98393.00
2023-05-11T20:10:22.995Z,98396.63
2023-05-11T20:12:51.414Z,98400.19
2023-05-11T20:15:19.853Z,98396.72
2023-05-11T20:17:48.059Z,98404.38
2023-05-11T20:20:16.179Z,98404.59
2023-05-11T20:22:45.814Z,98408.84
2023-05-11T20:25:18.333Z,98399.88
2023-05-11T20:27:46.652Z,98400.34
2023-05-11T20:30:15.243Z,98406.19
2023-05-11T20:34:06.904Z,98406.00
2023-05-11T20:35:32.914Z,98403.69
2023-05-11T20:38:02.477Z,98392.47
2023-05-11T20:40:30.745Z,98402.75
2023-05-11T20:42:58.797Z,98401.75
2023-05-11T20:45:28.171Z,98398.38
2023-05-11T20:47:56.274Z,98402.63
2023-05-11T20:50:24.719Z,98398.47
2023-05-11T20:52:52.901Z,98393.69
2023-05-11T20:55:22.693Z,98400.13
2023-05-11T20:57:50.786Z,98399.28
2023-05-11T21:00:19.059Z,98395.66
2023-05-11T21:02:47.408Z,98394.75
2023-05-11T21:05:15.704Z,98395.78
2023-05-11T21:07:43.761Z,98402.09
2023-05-11T21:10:13.003Z,98397.03
2023-05-11T21:12:42.568Z,98396.38
2023-05-11T21:15:11.512Z,98397.66
2023-05-11T21:17:39.577Z,98395.16
2023-05-11T21:20:08.981Z,98398.47
2023-05-11T21:22:38.353Z,98403.84
2023-05-11T21:25:07.297Z,98398.97
2023-05-11T21:27:35.303Z,98405.69
2023-05-11T21:30:05.366Z,98401.63
2023-05-11T21:32:33.589Z,98406.72
2023-05-11T21:35:01.582Z,98403.50
2023-05-11T21:37:33.453Z,98408.75
2023-05-11T21:40:01.939Z,98402.19
2023-05-11T21:42:34.517Z,98409.75
2023-05-11T21:45:04.838Z,98413.56
2023-05-11T21:47:32.956Z,98406.28
2023-05-11T21:50:01.032Z,98410.88
2023-05-11T21:52:29.124Z,98411.13
2023-05-11T21:54:57.157Z,98409.63
2023-05-11T21:57:25.336Z,98408.88
2023-05-11T21:59:53.460Z,98407.97
2023-05-11T22:02:22.840Z,98408.72
2023-05-11T22:04:50.789Z,98412.19
2023-05-11T22:07:20.004Z,98413.75
2023-05-11T22:09:48.160Z,98406.97
2023-05-11T22:12:16.138Z,98413.31
2023-05-11T22:14:44.164Z,98415.88
2023-05-11T22:17:12.267Z,98410.94
2023-05-11T22:19:41.679Z,98415.47
2023-05-11T22:22:09.823Z,98418.72
2023-05-11T22:24:37.927Z,98421.75
2023-05-11T22:27:08.623Z,98417.78
2023-05-11T22:29:36.653Z,98418.78
2023-05-11T22:32:04.864Z,98412.19
2023-05-11T22:34:33.052Z,98418.50
2023-05-11T22:37:03.518Z,98410.94
2023-05-11T22:39:31.542Z,98418.03
2023-05-11T22:41:59.608Z,98419.31
2023-05-11T22:44:27.906Z,98421.06
2023-05-11T22:46:59.172Z,98420.88
2023-05-11T22:49:27.211Z,98415.03
2023-05-11T22:51:58.618Z,98423.16
2023-05-11T22:54:28.271Z,98422.97
2023-05-11T22:56:57.388Z,98422.69
2023-05-11T22:59:25.489Z,98416.88
2023-05-11T23:01:55.321Z,98417.88
2023-05-11T23:04:23.312Z,98416.41
2023-05-11T23:06:51.370Z,98427.25
2023-05-11T23:09:19.779Z,98416.88
2023-05-11T23:11:49.360Z,98414.34
2023-05-11T23:14:17.579Z,98408.78
2023-05-11T23:16:45.603Z,98416.38
2023-05-11T23:19:13.599Z,98411.63
2023-05-11T23:21:41.707Z,98408.56
2023-05-11T23:24:09.808Z,98410.59
2023-05-11T23:26:38.873Z,98408.59
2023-05-11T23:29:08.626Z,98406.06
2023-05-11T23:31:36.864Z,98413.91
2023-05-11T23:34:05.078Z,98415.66
2023-05-11T23:36:33.704Z,98410.09
2023-05-11T23:39:01.719Z,98411.34
2023-05-11T23:41:29.709Z,98409.06
2023-05-11T23:43:57.864Z,98414.63
2023-05-11T23:46:27.382Z,98411.34
2023-05-11T23:48:55.920Z,98410.06
2023-05-11T23:51:23.933Z,98410.06
2023-05-11T23:53:51.925Z,98410.56
2023-05-11T23:56:19.898Z,98414.84
2023-05-11T23:58:48.271Z,98411.28
